createdAt,value
2023-04-27T00:01:15.876Z,72.95
2023-04-27T00:03:43.668Z,73.35
2023-04-27T00:06:11.916Z,73.61
2023-04-27T00:08:39.736Z,73.79
2023-04-27T00:11:07.394Z,74.19
2023-04-27T00:13:35.064Z,74.46
2023-04-27T00:16:04.003Z,75.01
2023-04-27T00:18:32.710Z,75.55
2023-04-27T00:21:00.498Z,75.89
2023-04-27T00:23:28.456Z,75.87
2023-04-27T00:25:56.248Z,75.80
2023-04-27T00:28:23.922Z,76.30
2023-04-27T00:30:54.420Z,76.83
2023-04-27T00:33:22.186Z,76.56
2023-04-27T00:35:49.893Z,76.47
2023-04-27T00:38:17.639Z,76.60
2023-04-27T00:40:45.425Z,76.59
2023-04-27T00:43:13.158Z,76.75
2023-04-27T00:45:45.891Z,76.78
2023-04-27T00:48:13.576Z,76.84
2023-04-27T00:50:41.609Z,77.00
2023-04-27T00:53:09.457Z,76.78
2023-04-27T00:55:37.130Z,76.91
2023-04-27T00:58:11.270Z,77.07
2023-04-27T01:00:40.319Z,77.05
2023-04-27T01:03:08.801Z,76.94
2023-04-27T01:05:37.638Z,76.99
2023-04-27T01:08:05.568Z,77.15
2023-04-27T01:10:33.298Z,77.07
2023-04-27T01:13:01.309Z,77.57
2023-04-27T01:15:29.123Z,77.81
2023-04-27T01:18:01.939Z,78.15
2023-04-27T01:20:33.180Z,78.34
2023-04-27T01:23:00.927Z,78.89
2023-04-27T01:25:28.736Z,79.39
2023-04-27T01:27:56.525Z,79.58
2023-04-27T01:30:24.111Z,79.97
2023-04-27T01:32:51.886Z,80.49
2023-04-27T01:35:19.728Z,80.87
2023-04-27T01:37:47.437Z,81.25
2023-04-27T01:40:15.516Z,81.89
2023-04-27T01:42:43.424Z,82.15
2023-04-27T01:45:11.773Z,82.79
2023-04-27T01:47:39.827Z,83.69
2023-04-27T01:50:07.784Z,84.13
2023-04-27T01:56:54.552Z,85.73
2023-04-27T01:59:22.302Z,86.26
2023-04-27T02:01:50.016Z,86.18
2023-04-27T02:04:18.050Z,86.75
2023-04-27T02:06:45.802Z,86.77
2023-04-27T02:09:14.220Z,87.15
2023-04-27T02:11:42.111Z,87.29
2023-04-27T02:18:12.116Z,87.78
2023-04-27T02:20:40.142Z,87.91
2023-04-27T02:23:08.023Z,88.16
2023-04-27T02:25:39.104Z,88.23
2023-04-27T02:28:06.775Z,88.30
2023-04-27T02:30:35.140Z,88.11
2023-04-27T02:33:02.857Z,88.27
2023-04-27T02:35:32.616Z,88.18
2023-04-27T02:38:34.861Z,88.26
2023-04-27T02:41:02.628Z,88.40
2023-04-27T02:43:31.880Z,88.74
2023-04-27T02:46:03.813Z,88.73
2023-04-27T02:48:31.759Z,88.80
2023-04-27T02:50:59.405Z,88.74
2023-04-27T02:53:27.242Z,89.00
2023-04-27T02:55:54.940Z,89.20
2023-04-27T02:58:22.729Z,89.22
2023-04-27T03:00:57.373Z,89.17
2023-04-27T03:03:25.364Z,89.35
2023-04-27T03:05:54.452Z,89.28
2023-04-27T03:08:22.087Z,89.41
2023-04-27T03:10:49.802Z,89.49
2023-04-27T03:13:17.457Z,89.56
2023-04-27T03:15:45.210Z,89.44
2023-04-27T03:18:12.814Z,89.40
2023-04-27T03:20:41.227Z,89.45
2023-04-27T03:23:08.925Z,89.58
2023-04-27T03:25:36.641Z,89.69
2023-04-27T03:28:04.603Z,89.99
2023-04-27T03:30:32.458Z,90.22
2023-04-27T03:33:00.240Z,90.35
2023-04-27T03:35:28.096Z,90.40
2023-04-27T03:37:55.971Z,90.69
2023-04-27T03:40:23.750Z,90.99
2023-04-27T03:42:51.598Z,90.86
2023-04-27T03:45:22.452Z,90.85
2023-04-27T03:47:50.674Z,90.80
2023-04-27T03:51:15.273Z,90.80
2023-04-27T03:53:43.016Z,90.79
2023-04-27T03:56:10.772Z,90.47
2023-04-27T03:58:40.906Z,90.60
2023-04-27T04:01:10.462Z,90.46
2023-04-27T04:03:38.251Z,90.54
2023-04-27T04:06:08.963Z,90.40
2023-04-27T04:08:37.405Z,90.44
2023-04-27T04:11:05.438Z,90.42
2023-04-27T04:13:33.115Z,90.01
2023-04-27T04:16:05.721Z,89.88
2023-04-27T04:18:34.345Z,89.77
2023-04-27T04:21:03.014Z,89.84
2023-04-27T04:23:30.842Z,89.84
2023-04-27T04:25:59.138Z,89.51
2023-04-27T04:28:27.568Z,89.31
2023-04-27T04:30:56.089Z,89.35
2023-04-27T04:33:24.303Z,89.47
2023-04-27T04:35:52.038Z,89.08
2023-04-27T04:38:19.848Z,88.67
2023-04-27T04:40:47.637Z,88.70
2023-04-27T04:43:15.373Z,88.22
2023-04-27T04:45:43.707Z,86.26
2023-04-27T04:48:11.584Z,85.20
2023-04-27T04:50:39.414Z,83.36
2023-04-27T04:53:07.512Z,81.69
2023-04-27T04:55:35.136Z,81.15
2023-04-27T04:58:03.306Z,79.64
2023-04-27T05:00:31.106Z,78.74
2023-04-27T05:02:58.926Z,77.81
2023-04-27T05:05:26.825Z,78.00
2023-04-27T05:07:54.494Z,76.77
2023-04-27T05:10:22.215Z,74.94
2023-04-27T05:12:49.846Z,73.75
2023-04-27T05:15:18.153Z,73.37
2023-04-27T05:17:46.397Z,72.45
2023-04-27T05:20:14.233Z,71.48
2023-04-27T05:22:42.137Z,69.63
2023-04-27T05:25:10.063Z,69.16
2023-04-27T05:27:37.887Z,66.16
2023-04-27T05:30:06.209Z,59.88
2023-04-27T05:32:36.228Z,56.93
2023-04-27T05:35:05.576Z,55.42
2023-04-27T05:37:33.646Z,52.07
2023-04-27T05:40:01.705Z,51.60
2023-04-27T05:42:29.488Z,49.83
2023-04-27T05:44:57.235Z,47.21
2023-04-27T05:47:25.038Z,44.55
2023-04-27T05:49:53.267Z,44.89
2023-04-27T05:52:22.037Z,44.49
2023-04-27T05:54:50.966Z,43.48
2023-04-27T05:57:18.707Z,44.10
2023-04-27T06:00:36.870Z,44.00
2023-04-27T06:03:04.751Z,44.40
2023-04-27T06:05:34.335Z,43.88
2023-04-27T06:08:02.067Z,42.67
2023-04-27T06:10:29.908Z,43.60
2023-04-27T06:12:57.617Z,44.32
2023-04-27T06:15:26.020Z,44.99
2023-04-27T06:17:53.750Z,45.09
2023-04-27T06:20:21.643Z,43.81
2023-04-27T06:22:49.404Z,43.52
2023-04-27T06:25:18.652Z,44.97
2023-04-27T06:27:46.487Z,45.31
2023-04-27T06:30:14.332Z,44.86
2023-04-27T06:32:42.160Z,45.37
2023-04-27T06:35:10.905Z,46.67
2023-04-27T06:37:39.108Z,46.51
2023-04-27T06:40:08.272Z,45.79
2023-04-27T06:42:36.512Z,43.75
2023-04-27T06:45:05.619Z,43.06
2023-04-27T06:47:33.482Z,42.86
2023-04-27T06:50:01.116Z,42.43
2023-04-27T06:52:54.250Z,42.68
2023-04-27T06:55:22.026Z,40.97
2023-04-27T06:57:49.757Z,40.65
2023-04-27T07:00:17.833Z,39.72
2023-04-27T07:02:45.565Z,40.21
2023-04-27T07:05:13.311Z,37.95
2023-04-27T07:07:41.005Z,39.79
2023-04-27T07:10:09.286Z,38.73
2023-04-27T07:12:38.039Z,39.38
2023-04-27T07:15:06.663Z,37.16
2023-04-27T07:17:34.313Z,37.68
2023-04-27T07:20:04.104Z,39.73
2023-04-27T07:22:38.422Z,40.61
2023-04-27T07:25:06.900Z,38.90
2023-04-27T07:27:35.793Z,39.76
2023-04-27T07:30:04.188Z,39.58
2023-04-27T07:32:32.234Z,39.42
2023-04-27T07:35:00.069Z,38.81
2023-04-27T07:37:28.878Z,37.82
2023-04-27T07:39:56.645Z,36.56
2023-04-27T07:42:25.210Z,36.03
2023-04-27T07:44:54.507Z,35.14
2023-04-27T07:47:22.273Z,34.44
2023-04-27T07:49:50.207Z,36.01
2023-04-27T07:52:17.973Z,35.38
2023-04-27T07:54:45.571Z,35.38
2023-04-27T07:57:13.236Z,35.77
2023-04-27T07:59:40.991Z,36.60
2023-04-27T08:02:19.140Z,35.20
2023-04-27T08:04:49.972Z,35.09
2023-04-27T08:07:18.475Z,35.54
2023-04-27T08:09:47.168Z,34.74
2023-04-27T08:12:15.035Z,35.49
2023-04-27T08:14:42.757Z,35.11
2023-04-27T08:17:11.384Z,34.48
2023-04-27T08:19:39.149Z,36.32
2023-04-27T08:22:08.585Z,36.10
2023-04-27T08:24:37.478Z,35.32
2023-04-27T08:27:08.645Z,34.85
2023-04-27T08:30:03.279Z,35.17
2023-04-27T08:32:31.426Z,36.67
2023-04-27T08:35:14.794Z,35.71
2023-04-27T08:37:42.554Z,34.88
2023-04-27T08:40:10.914Z,35.49
2023-04-27T08:42:42.037Z,36.18
2023-04-27T08:45:10.012Z,37.20
2023-04-27T08:47:48.624Z,38.98
2023-04-27T08:50:17.024Z,41.04
2023-04-27T08:52:52.572Z,42.22
2023-04-27T08:55:20.476Z,43.12
2023-04-27T08:57:58.452Z,44.47
2023-04-27T09:00:27.077Z,44.64
2023-04-27T09:02:55.038Z,45.27
2023-04-27T09:05:23.811Z,46.24
2023-04-27T09:08:08.074Z,46.77
2023-04-27T09:10:49.296Z,47.07
2023-04-27T09:13:17.392Z,48.19
2023-04-27T09:15:50.699Z,48.55
2023-04-27T09:18:21.320Z,47.82
2023-04-27T09:20:52.982Z,48.62
2023-04-27T09:36:23.326Z,55.63
2023-04-27T09:38:52.454Z,56.90
2023-04-27T09:41:20.647Z,56.70
2023-04-27T09:43:50.819Z,54.76
2023-04-27T09:46:19.785Z,54.57
2023-04-27T09:48:51.044Z,53.25
2023-04-27T09:51:23.167Z,53.04
2023-04-27T09:53:58.686Z,53.60
2023-04-27T09:56:41.768Z,52.30
2023-04-27T09:59:24.647Z,51.97
2023-04-27T10:01:56.797Z,52.10
2023-04-27T10:04:30.683Z,52.03
2023-04-27T10:07:08.520Z,50.33
2023-04-27T10:09:40.668Z,49.10
2023-04-27T10:12:41.999Z,49.56
2023-04-27T10:15:17.860Z,47.81
2023-04-27T10:17:50.442Z,48.78
2023-04-27T10:20:32.606Z,49.77
2023-04-27T10:23:00.931Z,47.62
2023-04-27T10:25:37.079Z,47.29
2023-04-27T10:28:05.110Z,48.64
2023-04-27T10:30:43.968Z,48.46
2023-04-27T10:33:15.961Z,45.78
2023-04-27T10:35:54.325Z,45.71
2023-04-27T10:38:30.921Z,45.03
2023-04-27T10:41:07.515Z,43.63
2023-04-27T10:44:38.258Z,43.35
2023-04-27T10:47:22.146Z,44.25
2023-04-27T10:49:54.399Z,45.00
2023-04-27T10:52:22.100Z,44.88
2023-04-27T10:54:49.804Z,44.90
2023-04-27T10:57:18.077Z,45.20
2023-04-27T10:59:54.682Z,44.95
2023-04-27T11:02:27.991Z,44.17
2023-04-27T11:04:56.739Z,44.58
2023-04-27T11:07:29.075Z,43.57
2023-04-27T11:09:57.130Z,43.47
2023-04-27T11:12:28.380Z,44.04
2023-04-27T11:14:59.555Z,44.11
2023-04-27T11:17:31.098Z,43.80
2023-04-27T11:19:58.929Z,44.48
2023-04-27T11:22:51.314Z,45.74
2023-04-27T11:25:27.820Z,48.03
2023-04-27T11:27:56.033Z,49.94
2023-04-27T11:30:24.341Z,50.89
2023-04-27T11:32:53.831Z,47.34
2023-04-27T11:35:32.666Z,47.21
2023-04-27T11:38:00.473Z,45.26
2023-04-27T11:40:29.507Z,43.16
2023-04-27T11:42:59.635Z,42.96
2023-04-27T11:45:30.150Z,41.65
2023-04-27T11:48:01.028Z,41.38
2023-04-27T11:50:28.865Z,41.01
2023-04-27T11:53:01.232Z,41.29
2023-04-27T11:55:29.517Z,41.12
2023-04-27T11:57:59.394Z,40.79
2023-04-27T12:00:27.206Z,40.59
2023-04-27T12:02:55.213Z,40.48
2023-04-27T12:05:23.329Z,40.77
2023-04-27T12:07:52.357Z,40.36
2023-04-27T12:10:20.170Z,39.80
2023-04-27T12:12:47.911Z,40.08
2023-04-27T12:15:15.601Z,40.08
2023-04-27T12:17:43.292Z,38.89
2023-04-27T12:20:12.016Z,38.49
2023-04-27T12:22:40.810Z,38.07
2023-04-27T12:25:08.601Z,37.85
2023-04-27T12:27:36.326Z,36.82
2023-04-27T12:30:04.949Z,35.32
2023-04-27T12:32:32.628Z,35.31
2023-04-27T12:35:00.318Z,36.44
2023-04-27T12:37:27.974Z,37.13
2023-04-27T12:39:55.727Z,37.03
2023-04-27T12:42:24.433Z,38.33
2023-04-27T12:44:52.952Z,38.68
2023-04-27T12:47:45.980Z,37.54
2023-04-27T12:50:10.173Z,38.10
2023-04-27T12:57:06.353Z,38.83
2023-04-27T12:59:34.410Z,39.06
2023-04-27T13:02:02.895Z,36.43
2023-04-27T13:04:31.673Z,33.04
2023-04-27T13:07:03.293Z,30.02
2023-04-27T13:09:31.098Z,30.79
2023-04-27T13:12:01.401Z,30.77
2023-04-27T13:14:30.417Z,32.25
2023-04-27T13:16:58.146Z,33.00
2023-04-27T13:19:26.774Z,33.98
2023-04-27T13:21:54.512Z,33.95
2023-04-27T13:24:22.806Z,34.11
2023-04-27T13:26:50.535Z,33.13
2023-04-27T13:29:18.176Z,33.65
2023-04-27T13:31:46.191Z,34.10
2023-04-27T13:34:18.855Z,34.59
2023-04-27T13:36:48.896Z,36.21
2023-04-27T13:39:17.297Z,36.59
2023-04-27T13:42:36.284Z,36.39
2023-04-27T13:45:04.930Z,36.90
2023-04-27T13:47:37.021Z,38.65
2023-04-27T13:50:10.742Z,38.88
2023-04-27T13:52:39.578Z,39.29
2023-04-27T13:55:09.465Z,39.24
2023-04-27T13:57:37.991Z,40.95
2023-04-27T14:00:11.488Z,41.45
2023-04-27T14:03:05.730Z,40.79
2023-04-27T14:05:33.726Z,39.42
2023-04-27T14:08:01.489Z,39.20
2023-04-27T14:10:29.584Z,39.22
2023-04-27T14:12:57.510Z,39.09
2023-04-27T14:15:25.362Z,38.88
2023-04-27T14:17:53.147Z,39.87
2023-04-27T14:20:21.221Z,40.74
2023-04-27T14:23:40.454Z,40.66
2023-04-27T14:26:09.184Z,38.39
2023-04-27T14:28:36.940Z,39.61
2023-04-27T14:31:04.649Z,38.08
2023-04-27T14:33:32.597Z,39.52
2023-04-27T14:36:00.811Z,39.44
2023-04-27T14:38:28.556Z,39.57
2023-04-27T14:40:56.387Z,38.95
2023-04-27T14:43:24.090Z,38.60
2023-04-27T14:45:57.137Z,38.05
2023-04-27T14:48:29.899Z,38.29
2023-04-27T14:52:02.539Z,39.09
2023-04-27T14:54:30.453Z,38.16
2023-04-27T14:56:58.956Z,37.57
2023-04-27T14:59:26.867Z,38.69
2023-04-27T15:01:54.764Z,38.12
2023-04-27T15:04:22.905Z,37.16
2023-04-27T15:06:51.019Z,36.73
2023-04-27T15:09:18.976Z,37.70
2023-04-27T15:11:47.097Z,38.23
2023-04-27T15:14:14.888Z,38.30
2023-04-27T15:16:42.768Z,38.24
2023-04-27T15:19:10.533Z,38.58
2023-04-27T15:22:35.433Z,38.93
2023-04-27T15:25:03.406Z,39.67
2023-04-27T15:27:31.195Z,40.26
2023-04-27T15:30:07.489Z,40.55
2023-04-27T15:32:35.180Z,41.41
2023-04-27T15:35:04.411Z,41.72
2023-04-27T15:37:35.860Z,41.32
2023-04-27T15:40:04.368Z,41.53
2023-04-27T15:42:32.194Z,41.66
2023-04-27T15:45:00.755Z,42.07
2023-04-27T15:47:28.424Z,42.52
2023-04-27T15:49:57.765Z,42.91
2023-04-27T15:52:27.202Z,43.92
2023-04-27T15:54:55.445Z,44.08
2023-04-27T15:57:23.090Z,43.41
2023-04-27T15:59:50.766Z,43.66
2023-04-27T16:02:18.682Z,44.07
2023-04-27T16:04:46.648Z,43.24
2023-04-27T16:07:14.523Z,42.53
2023-04-27T16:09:42.395Z,42.74
2023-04-27T16:12:10.258Z,41.69
2023-04-27T16:14:38.365Z,41.63
2023-04-27T16:17:06.862Z,42.23
2023-04-27T16:19:35.907Z,41.17
2023-04-27T16:22:04.310Z,41.67
2023-04-27T16:24:32.472Z,41.99
2023-04-27T16:27:00.189Z,42.04
2023-04-27T16:33:29.582Z,42.97
2023-04-27T16:40:10.942Z,43.10
2023-04-27T16:42:38.716Z,42.78
2023-04-27T16:45:08.540Z,43.13
2023-04-27T16:47:38.084Z,43.53
2023-04-27T16:50:06.465Z,43.62
2023-04-27T16:52:36.508Z,43.72
2023-04-27T16:55:04.677Z,43.75
2023-04-27T16:57:32.854Z,43.95
2023-04-27T17:00:01.814Z,43.98
2023-04-27T17:02:29.998Z,44.17
2023-04-27T17:04:59.507Z,44.77
2023-04-27T17:07:33.061Z,44.44
2023-04-27T17:10:01.179Z,44.47
2023-04-27T17:12:28.907Z,44.66
2023-04-27T17:14:56.799Z,44.66
2023-04-27T17:17:24.619Z,45.02
2023-04-27T17:19:52.371Z,45.27
2023-04-27T17:22:20.457Z,45.37
2023-04-27T17:24:48.169Z,46.61
2023-04-27T17:27:16.265Z,48.22
2023-04-27T17:29:43.915Z,47.60
2023-04-27T17:32:11.698Z,46.62
2023-04-27T17:34:41.052Z,46.77
2023-04-27T17:37:11.098Z,51.78
2023-04-27T17:39:38.767Z,53.13
2023-04-27T17:42:12.262Z,56.34
2023-04-27T17:44:42.100Z,56.93
2023-04-27T17:47:09.888Z,57.15
2023-04-27T17:49:38.030Z,57.84
2023-04-27T17:52:05.923Z,58.01
2023-04-27T17:54:33.696Z,58.47
2023-04-27T17:57:02.058Z,58.61
2023-04-27T17:59:29.910Z,59.37
2023-04-27T18:01:57.836Z,60.33
2023-04-27T18:04:26.929Z,59.97
2023-04-27T18:06:54.682Z,59.92
2023-04-27T18:09:23.632Z,59.53
2023-04-27T18:11:51.424Z,60.14
2023-04-27T18:14:19.178Z,60.36
2023-04-27T18:16:47.093Z,60.32
2023-04-27T18:19:15.098Z,61.10
2023-04-27T18:26:00.140Z,62.45
2023-04-27T18:28:28.099Z,63.20
2023-04-27T18:30:56.029Z,63.59
2023-04-27T18:33:50.846Z,63.65
2023-04-27T18:36:19.823Z,63.71
2023-04-27T18:38:51.006Z,64.34
2023-04-27T18:45:31.563Z,65.49
2023-04-27T18:47:59.387Z,64.67
2023-04-27T18:50:27.199Z,62.87
2023-04-27T18:52:54.927Z,62.42
2023-04-27T18:55:22.764Z,61.98
2023-04-27T18:57:50.650Z,63.18
2023-04-27T19:03:10.993Z,61.98
2023-04-27T19:05:42.871Z,61.97
2023-04-27T19:08:11.603Z,61.43
2023-04-27T19:10:41.591Z,61.01
2023-04-27T19:13:09.547Z,60.95
2023-04-27T19:15:37.606Z,61.21
2023-04-27T19:18:10.623Z,61.05
2023-04-27T19:20:39.792Z,60.33
2023-04-27T19:23:09.772Z,60.54
2023-04-27T19:25:37.996Z,61.46
2023-04-27T19:30:34.067Z,61.92
2023-04-27T19:33:04.991Z,62.40
2023-04-27T19:35:32.731Z,64.18
2023-04-27T19:38:00.976Z,64.70
2023-04-27T19:40:28.712Z,64.69
2023-04-27T19:42:57.100Z,63.84
2023-04-27T19:45:24.939Z,64.68
2023-04-27T19:47:54.239Z,64.27
2023-04-27T19:50:22.455Z,65.77
2023-04-27T19:52:50.166Z,66.58
2023-04-27T19:55:18.133Z,67.15
2023-04-27T19:57:46.106Z,67.64
2023-04-27T20:00:14.229Z,67.63
2023-04-27T20:02:42.485Z,67.96
2023-04-27T20:05:10.773Z,68.05
2023-04-27T20:07:39.145Z,67.63
2023-04-27T20:10:07.341Z,68.52
2023-04-27T20:15:42.521Z,69.65
2023-04-27T20:19:28.419Z,70.24
2023-04-27T20:21:59.550Z,71.12
2023-04-27T20:24:28.502Z,71.95
2023-04-27T20:26:55.086Z,72.52
2023-04-27T20:29:21.629Z,73.00
2023-04-27T20:31:48.299Z,73.17
2023-04-27T20:34:15.268Z,73.57
2023-04-27T20:36:43.683Z,73.73
2023-04-27T20:39:11.357Z,73.84
2023-04-27T20:41:41.130Z,74.07
2023-04-27T20:44:08.876Z,74.24
2023-04-27T20:46:35.981Z,74.61
2023-04-27T20:49:05.258Z,74.63
2023-04-27T20:55:40.328Z,75.41
2023-04-27T20:58:07.118Z,75.79
2023-04-27T21:00:33.555Z,76.02
2023-04-27T21:03:00.388Z,76.13
2023-04-27T21:05:26.782Z,76.53
2023-04-27T21:07:53.429Z,76.72
2023-04-27T21:10:19.702Z,77.11
2023-04-27T21:12:46.012Z,77.48
2023-04-27T21:15:12.393Z,77.81
2023-04-27T21:17:38.871Z,77.63
2023-04-27T21:24:25.678Z,78.89
2023-04-27T21:26:52.198Z,78.93
2023-04-27T21:29:21.048Z,79.19
2023-04-27T21:31:47.321Z,79.21
2023-04-27T21:34:14.029Z,79.03
2023-04-27T21:36:40.524Z,79.19
2023-04-27T21:39:06.877Z,79.97
2023-04-27T21:41:38.540Z,80.32
2023-04-27T21:44:04.989Z,80.58
2023-04-27T21:46:31.331Z,81.00
2023-04-27T21:48:57.689Z,80.63
2023-04-27T21:51:23.981Z,80.56
2023-04-27T21:53:50.343Z,80.51
2023-04-27T21:56:16.636Z,80.36
2023-04-27T21:58:43.893Z,80.32
2023-04-27T22:01:11.970Z,80.22
2023-04-27T22:03:38.548Z,80.53
2023-04-27T22:06:05.590Z,80.73
2023-04-27T22:12:32.931Z,80.76
2023-04-27T22:14:59.365Z,80.88
2023-04-27T22:17:25.985Z,81.12
2023-04-27T22:19:55.030Z,80.88
2023-04-27T22:22:21.353Z,80.73
2023-04-27T22:24:47.974Z,80.86
2023-04-27T22:27:14.318Z,81.04
2023-04-27T22:29:40.703Z,81.29
2023-04-27T22:32:07.059Z,81.26
2023-04-27T22:34:33.555Z,81.28
2023-04-27T22:37:00.030Z,81.41
2023-04-27T22:39:26.357Z,81.75
2023-04-27T22:41:52.614Z,81.95
2023-04-27T22:45:22.396Z,81.77
2023-04-27T22:47:48.828Z,82.28
2023-04-27T22:50:15.724Z,82.40
2023-04-27T22:52:42.575Z,82.72
2023-04-27T22:55:12.134Z,82.55
2023-04-27T22:57:39.411Z,82.46
2023-04-27T23:04:10.483Z,83.72
2023-04-27T23:06:37.612Z,84.33
2023-04-27T23:09:04.880Z,83.87
2023-04-27T23:11:31.245Z,83.45
2023-04-27T23:13:57.604Z,82.93
2023-04-27T23:16:25.089Z,82.63
2023-04-27T23:18:52.186Z,82.64
2023-04-27T23:21:18.459Z,82.74
2023-04-27T23:23:45.963Z,82.93
2023-04-27T23:26:15.790Z,83.01
2023-04-27T23:28:42.651Z,82.85
2023-04-27T23:31:09.613Z,82.70
2023-04-27T23:33:36.212Z,82.56
2023-04-27T23:40:06.157Z,82.65
2023-04-27T23:42:32.623Z,82.73
2023-04-27T23:49:19.699Z,83.57
2023-04-27T23:51:46.394Z,84.41
2023-04-27T23:54:12.627Z,84.48
